सभी
Yarram Airport (Yarram, Victoria) YYRM मौसम
|
Yarram, Victoria (YYRM)
स्वच्छ आकाश
हल्की हवाएं |
|
18 °C |
There is no TAF data available at YYRM. Showing TAF data for YLTV (29 mi NW).
TGN Terminal Area Forecast (no data for YYRM)
| Here is the undecoded forecast: 2026/05/02 18:59 YLTV 021859Z 0220/0308 05010KT CAVOK PROB30 INTER 0303/0308 VRB15G30KT 4000 TSRA SCT040 FEW070CB RMK T 14 18 19 20 Q 1013 1013 1012 1010 |
Recent YYRM METAR history
| Date | Time (AEST) | Flight Rules | Wind Dir. | Speed | Type | Height AGL (ft) | Visibility | Temp (°C) | Temp (°F) | Dew Point (°C) | Dew Point (°F) | Rel. Humid. | Pressure | Density Altitude | Remarks |
|---|---|---|---|---|---|---|---|---|---|---|---|---|---|---|---|
| 03-मई | 06:00 | n/a | 30° | 7 kt | Missing | 18° | 64° | 12° | 53° | 68% | 1013 mb | 428 ft | |||
| 03-मई | 05:00 | n/a | 20° | 5 kt | Missing | 17° | 62° | 11° | 51° | 68% | 1013 mb | 308 ft | |||
| 03-मई | 04:00 | n/a | 20° | 7 kt | Missing | 17° | 62° | 11° | 51° | 68% | 1013 mb | 308 ft | |||
| 03-मई | 03:00 | n/a | 30° | 9 kt | Missing | 18° | 64° | 11° | 51° | 64% | 1014 mb | 399 ft | |||
| 03-मई | 02:00 | n/a | 50° | 7 kt | Missing | 16° | 60° | 11° | 51° | 72% | 1014 mb | 159 ft | |||
| 03-मई | 01:00 | n/a | 50° | 6 kt | Missing | 16° | 60° | 11° | 51° | 72% | 1015 mb | 129 ft | |||
| 03-मई | 00:00 | n/a | 30° | 6 kt | Missing | 17° | 62° | 10° | 50° | 63% | 1015 mb | 249 ft | |||
| 02-मई | 23:00 | n/a | 60° | 7 kt | Missing | 18° | 64° | 11° | 51° | 64% | 1015 mb | 369 ft | |||
| 02-मई | 22:00 | n/a | 60° | 6 kt | Missing | 17° | 62° | 11° | 51° | 68% | 1016 mb | 220 ft | |||
| 02-मई | 21:00 | n/a | 50° | 7 kt | Missing | 18° | 64° | 11° | 51° | 64% | 1016 mb | 340 ft | |||
| 02-मई | 20:00 | n/a | 50° | 7 kt | Missing | 19° | 66° | 11° | 51° | 60% | 1016 mb | 460 ft | |||
| 02-मई | 19:00 | n/a | 50° | 5 kt | Missing | 19° | 66° | 11° | 51° | 60% | 1017 mb | 430 ft | |||
| 02-मई | 18:00 | n/a | 20° | 8 kt | Missing | 19° | 66° | 11° | 51° | 60% | 1016 mb | 460 ft | |||
| 02-मई | 17:00 | n/a | 10° | 6 kt | Missing | 20° | 68° | 11° | 51° | 56% | 1016 mb | 580 ft | |||
| 02-मई | 16:00 | n/a | 10° | 10 kt | Missing | 23° | 73° | 10° | 50° | 44% | 1016 mb | 940 ft | |||
| 02-मई | 15:00 | n/a | 360° | 11 kt | Missing | 24° | 75° | 9° | 48° | 38% | 1016 mb | 1,060 ft | |||
| 02-मई | 14:00 | n/a | 360° | 12 kt | Missing | 25° | 77° | 9° | 48° | 36% | 1016 mb | 1,180 ft | |||
| 02-मई | 13:00 | n/a | 330° | 11 kt | Missing | 25° | 77° | 9° | 48° | 36% | 1017 mb | 1,150 ft | |||
| 02-मई | 12:00 | n/a | 360° | 13 kt | Missing | 26° | 78° | 9° | 48° | 34% | 1018 mb | 1,240 ft | |||
| 02-मई | 11:00 | n/a | 360° | 12 kt | Missing | 24° | 75° | 9° | 48° | 38% | 1019 mb | 971 ft | |||
| 02-मई | 10:00 | n/a | 360° | 13 kt | Missing | 25° | 77° | 9° | 48° | 36% | 1019 mb | 1,091 ft | |||
| 02-मई | 09:00 | n/a | 360° | 11 kt | Missing | 23° | 73° | 9° | 48° | 41% | 1020 mb | 821 ft | |||
| 02-मई | 08:00 | n/a | 40° | 6 kt | Missing | 17° | 62° | 10° | 50° | 63% | 1020 mb | 101 ft | |||
| 02-मई | 07:00 | n/a | 40° | 5 kt | Missing | 14° | 57° | 9° | 48° | 72% | 1019 mb | -229 ft |
लॉगिन
| Your browser is unsupported. अपना ब्राऊजर अपग्रेड करें |
